Time;durP1;ratioP1;P1;durP2;ratioP2;P2;SDS_P1;SDS_P2;PMS_P1;PMS_P2;Temp;Humidity;BMP_temperature;BMP_pressure;BME280_temperature;BME280_humidity;BME280_pressure;Samples;Min_cycle;Max_cycle;Signal;HPM_P1;HPM_P2
2023/05/23 00:00:27;;;;;;;27.88;13.65;;;;;;;17.27;100.00;100671.66;2092765;28;20043;-73
2023/05/23 00:01:49;;;;;;;34.22;13.50;;;;;;;17.26;100.00;100671.69;2095488;28;20508;-73
2023/05/23 00:03:11;;;;;;;;;;;;;;;17.24;100.00;100674.38;2095643;28;20133;-73
2023/05/23 00:04:35;;;;;;;35.10;13.23;;;;;;;17.21;100.00;100671.72;2089373;28;19936;-73
2023/05/23 00:05:57;;;;;;;31.25;13.93;;;;;;;17.18;100.00;100669.13;2101102;28;20059;-73
2023/05/23 00:07:20;;;;;;;30.67;13.65;;;;;;;17.17;100.00;100675.34;2092071;28;20037;-74
2023/05/23 00:08:42;;;;;;;30.60;14.50;;;;;;;17.17;100.00;100672.69;2086985;28;20552;-73
2023/05/23 00:10:05;;;;;;;37.45;14.90;;;;;;;17.17;100.00;100677.13;2103546;28;20060;-73
2023/05/23 00:11:28;;;;;;;33.65;15.60;;;;;;;17.16;100.00;100670.91;2091628;28;20615;-73
2023/05/23 00:12:52;;;;;;;35.03;16.17;;;;;;;17.13;100.00;100666.47;2092229;28;20416;-74
2023/05/23 00:14:14;;;;;;;37.83;16.05;;;;;;;17.12;100.00;100664.75;2078863;28;20047;-73
2023/05/23 00:15:37;;;;;;;31.27;14.65;;;;;;;17.10;100.00;100660.31;2084414;28;20421;-73
2023/05/23 00:16:59;;;;;;;33.80;14.98;;;;;;;17.07;100.00;100661.22;2092638;28;20397;-73
2023/05/23 00:18:23;;;;;;;31.65;14.07;;;;;;;17.05;100.00;100659.50;2085455;28;20051;-73
2023/05/23 00:19:44;;;;;;;33.45;14.80;;;;;;;17.02;100.00;100660.41;2086017;28;20543;-73
2023/05/23 00:21:08;;;;;;;36.63;15.38;;;;;;;16.99;100.00;100659.59;2094420;28;20051;-73
2023/05/23 00:22:29;;;;;;;36.13;15.07;;;;;;;16.96;100.00;100664.94;2092354;28;20076;-73
2023/05/23 00:23:52;;;;;;;29.98;14.93;;;;;;;16.94;100.00;100662.28;2096726;28;20048;-73
2023/05/23 00:25:14;;;;;;;33.83;15.63;;;;;;;16.93;100.00;100665.00;2095054;28;20095;-73
2023/05/23 00:26:37;;;;;;;32.35;15.32;;;;;;;16.92;100.00;100663.22;2096889;28;20049;-73
2023/05/23 00:28:00;;;;;;;31.08;14.30;;;;;;;16.91;100.00;100664.13;2094183;28;20040;-73
2023/05/23 00:29:23;;;;;;;33.40;14.88;;;;;;;16.91;100.00;100664.13;2088445;28;20056;-73
2023/05/23 00:30:44;;;;;;;38.42;16.15;;;;;;;16.91;100.00;100664.13;2086785;28;20041;-73
2023/05/23 00:32:06;;;;;;;41.10;15.70;;;;;;;16.91;100.00;100664.13;2082435;28;20420;-73
2023/05/23 00:33:28;;;;;;;34.15;15.57;;;;;;;16.91;100.00;100659.66;2082094;28;20050;-74
2023/05/23 00:34:53;;;;;;;33.90;16.33;;;;;;;16.90;100.00;100652.56;2103647;28;20050;-73
2023/05/23 00:36:15;;;;;;;34.55;15.23;;;;;;;16.90;100.00;100667.69;2093471;28;20060;-73
2023/05/23 00:37:38;;;;;;;37.38;16.35;;;;;;;16.90;100.00;100665.00;2082763;28;20061;-74
2023/05/23 00:39:01;;;;;;;34.78;16.20;;;;;;;16.89;100.00;100664.13;2083947;28;20107;-74
2023/05/23 00:40:23;;;;;;;31.77;14.63;;;;;;;16.89;100.00;100668.56;2107487;28;20570;-73
2023/05/23 00:41:46;;;;;;;29.80;15.68;;;;;;;16.88;100.00;100665.03;2088048;28;20052;-73
2023/05/23 00:43:11;;;;;;;29.73;15.15;;;;;;;16.88;100.00;100661.47;2094594;28;20496;-73
2023/05/23 00:44:33;;;;;;;26.58;13.68;;;;;;;16.86;100.00;100669.50;2088454;28;20226;-73
2023/05/23 00:45:56;;;;;;;29.20;13.43;;;;;;;16.84;100.00;100659.75;2089217;28;20065;-73
2023/05/23 00:47:19;;;;;;;33.35;14.75;;;;;;;16.85;100.00;100662.41;2094394;28;20364;-73
2023/05/23 00:48:40;;;;;;;33.03;15.02;;;;;;;16.86;100.00;100663.28;2086057;28;20086;-73
2023/05/23 00:50:03;;;;;;;30.88;16.33;;;;;;;16.85;100.00;100657.09;2091713;28;20121;-73
2023/05/23 00:51:26;;;;;;;32.20;15.73;;;;;;;16.84;100.00;100657.09;2094453;28;20412;-73
2023/05/23 00:52:49;;;;;;;33.95;16.13;;;;;;;16.83;100.00;100663.31;2085718;28;20051;-74
2023/05/23 00:54:12;;;;;;;39.50;16.95;;;;;;;16.80;100.00;100660.72;2092074;28;20052;-73
2023/05/23 00:55:35;;;;;;;33.03;16.80;;;;;;;16.81;100.00;100662.44;2087806;28;20136;-73
2023/05/23 00:56:56;;;;;;;34.58;16.77;;;;;;;16.82;100.00;100664.22;2080347;28;20409;-73
2023/05/23 00:58:20;;;;;;;34.65;17.15;;;;;;;16.83;100.00;100653.53;2090699;28;20123;-73
2023/05/23 00:59:42;;;;;;;34.40;17.63;;;;;;;16.84;100.00;100659.75;2094305;28;20874;-73
2023/05/23 01:01:04;;;;;;;39.08;18.00;;;;;;;16.84;100.00;100657.09;2093288;28;20052;-73
2023/05/23 01:02:27;;;;;;;35.95;17.85;;;;;;;16.85;100.00;100659.75;2088715;28;20140;-73
2023/05/23 01:03:49;;;;;;;34.30;18.50;;;;;;;16.85;100.00;100658.84;2081979;28;20048;-73
2023/05/23 01:05:13;;;;;;;33.95;19.00;;;;;;;16.85;100.00;100658.84;2077938;28;20367;-73
2023/05/23 01:06:35;;;;;;;35.90;18.17;;;;;;;16.86;100.00;100657.97;2077387;28;20049;-73
2023/05/23 01:07:58;;;;;;;39.38;17.70;;;;;;;16.85;100.00;100657.09;2086448;28;20041;-73
2023/05/23 01:09:21;;;;;;;34.53;17.23;;;;;;;16.87;100.00;100662.41;2094372;28;20041;-73
2023/05/23 01:10:43;;;;;;;33.33;17.40;;;;;;;16.86;100.00;100658.84;2086045;28;20045;-73
2023/05/23 01:12:20;;;;;;;31.92;17.27;;;;;;;16.87;100.00;100657.06;2082217;28;20583;-73
2023/05/23 01:13:52;;;;;;;37.28;18.55;;;;;;;16.86;100.00;100656.19;2079623;28;20049;-73
2023/05/23 01:15:17;;;;;;;31.75;16.60;;;;;;;16.86;100.00;100657.97;2094097;28;20085;-73
2023/05/23 01:16:48;;;;;;;32.28;18.08;;;;;;;16.86;100.00;100663.28;2089541;28;20049;-73
2023/05/23 01:18:16;;;;;;;36.13;18.17;;;;;;;16.85;100.00;100656.19;2081461;28;20041;-73
2023/05/23 01:20:00;;;;;;;37.20;20.25;;;;;;;16.84;100.00;100659.75;2084364;28;20040;-73
2023/05/23 01:21:25;;;;;;;36.42;19.45;;;;;;;16.81;100.00;100652.66;2095273;28;20416;-73
2023/05/23 01:23:10;;;;;;;40.85;20.88;;;;;;;16.79;100.00;100656.28;2086337;28;20049;-73
2023/05/23 01:24:44;;;;;;;36.88;20.75;;;;;;;16.78;100.00;100665.16;2094835;28;20048;-73
2023/05/23 01:26:25;;;;;;;39.65;19.90;;;;;;;16.77;100.00;100663.38;2088726;28;20115;-72
2023/05/23 01:28:02;;;;;;;38.67;20.20;;;;;;;16.77;100.00;100656.28;2095568;28;20049;-72
2023/05/23 01:29:27;;;;;;;38.15;19.23;;;;;;;16.75;100.00;100663.41;2095347;28;20485;-72
2023/05/23 01:30:52;;;;;;;47.20;18.80;;;;;;;16.71;100.00;100654.56;2092089;28;20060;-72
2023/05/23 01:32:16;;;;;;;37.55;16.83;;;;;;;16.66;100.00;100651.06;2128260;27;20123;-71
2023/05/23 01:33:41;;;;;;;39.55;18.75;;;;;;;16.64;100.00;100655.53;2120588;28;20067;-74
2023/05/23 01:35:04;;;;;;;42.28;21.73;;;;;;;16.65;100.00;100656.41;2109680;28;20048;-74
2023/05/23 01:36:26;;;;;;;42.13;22.05;;;;;;;16.65;100.00;100654.63;2114500;28;20063;-74
2023/05/23 01:37:48;;;;;;;36.08;20.17;;;;;;;16.65;100.00;100651.97;2106000;28;20054;-73
2023/05/23 01:39:12;;;;;;;38.47;21.58;;;;;;;16.64;100.00;100651.97;2112936;28;20538;-74
2023/05/23 01:40:34;;;;;;;40.35;20.83;;;;;;;16.65;100.00;100654.63;2116598;28;20122;-73
2023/05/23 01:41:57;;;;;;;43.50;21.05;;;;;;;16.64;100.00;100654.66;2109669;28;20086;-73
2023/05/23 01:43:21;;;;;;;38.55;19.38;;;;;;;16.64;100.00;100650.19;2109592;28;20051;-74
2023/05/23 01:44:45;;;;;;;41.17;20.73;;;;;;;16.65;100.00;100654.63;2115072;28;20043;-74
2023/05/23 01:46:08;;;;;;;42.30;19.55;;;;;;;16.66;100.00;100655.53;2117260;28;20405;-74
2023/05/23 01:47:32;;;;;;;37.83;20.73;;;;;;;16.67;100.00;100658.16;2115821;28;20499;-74
2023/05/23 01:48:56;;;;;;;36.95;18.95;;;;;;;16.69;100.00;100658.13;2109478;28;20077;-73
2023/05/23 01:50:18;;;;;;;38.63;19.70;;;;;;;16.70;100.00;100654.56;2109427;28;20126;-73
2023/05/23 01:51:40;;;;;;;41.13;19.80;;;;;;;16.69;100.00;100652.81;2109175;28;20451;-74
2023/05/23 01:53:03;;;;;;;38.72;19.38;;;;;;;16.67;100.00;100646.63;2106659;28;20409;-74
2023/05/23 01:54:28;;;;;;;39.40;19.52;;;;;;;16.64;100.00;100647.53;2115341;28;20368;-74
2023/05/23 01:55:50;;;;;;;41.35;20.88;;;;;;;16.62;100.00;100646.66;2109501;28;20151;-74
2023/05/23 01:57:14;;;;;;;41.08;21.00;;;;;;;16.62;100.00;100649.31;2114864;28;20050;-74
2023/05/23 01:58:38;;;;;;;38.63;20.70;;;;;;;16.60;100.00;100648.47;2111958;28;20048;-74
2023/05/23 01:59:59;;;;;;;49.85;22.65;;;;;;;16.59;100.00;100646.69;2108985;28;20519;-74
2023/05/23 02:01:22;;;;;;;45.08;21.42;;;;;;;16.58;100.00;100649.34;2109296;28;20451;-72
2023/05/23 02:02:47;;;;;;;42.88;20.85;;;;;;;16.56;100.00;100641.38;2115131;28;20508;-71
2023/05/23 02:04:10;;;;;;;45.45;23.10;;;;;;;16.54;100.00;100647.63;2108683;28;20146;-71
2023/05/23 02:05:33;;;;;;;46.13;21.73;;;;;;;16.53;100.00;100646.75;2092578;28;20048;-72
2023/05/23 02:06:57;;;;;;;38.63;21.10;;;;;;;16.54;100.00;100647.63;2104555;28;20060;-72
2023/05/23 02:08:18;;;;;;;48.55;22.38;;;;;;;16.55;100.00;100650.25;2100579;28;20044;-71
2023/05/23 02:09:41;;;;;;;42.25;21.73;;;;;;;16.56;100.00;100652.03;2114948;28;20418;-71
2023/05/23 02:11:02;;;;;;;38.25;20.95;;;;;;;16.56;100.00;100657.34;2104212;28;20459;-71
2023/05/23 02:12:24;;;;;;;46.55;20.70;;;;;;;16.55;100.00;100652.91;2104738;28;20401;-72
2023/05/23 02:13:45;;;;;;;40.75;20.58;;;;;;;16.54;100.00;100652.97;2115203;28;20043;-72
2023/05/23 02:15:09;;;;;;;46.72;21.20;;;;;;;16.52;100.00;100655.63;2108794;28;20048;-71
2023/05/23 02:16:32;;;;;;;44.38;21.23;;;;;;;16.50;100.00;100649.44;2104146;28;20044;-71
2023/05/23 02:17:57;;;;;;;43.72;21.05;;;;;;;16.51;100.00;100655.66;2117655;28;20035;-71
2023/05/23 02:19:18;;;;;;;38.58;21.02;;;;;;;16.48;100.00;100656.53;2116731;28;20043;-74
2023/05/23 02:20:42;;;;;;;43.22;21.50;;;;;;;16.46;100.00;100658.38;2107990;28;20040;-74
2023/05/23 02:22:05;;;;;;;42.80;21.65;;;;;;;16.47;100.00;100657.47;2107293;28;20040;-74
2023/05/23 02:23:27;;;;;;;41.15;21.85;;;;;;;16.46;100.00;100653.03;2105496;28;20044;-73
2023/05/23 02:24:50;;;;;;;43.40;23.05;;;;;;;16.47;100.00;100662.81;2114050;28;20055;-74
2023/05/23 02:26:12;;;;;;;41.33;21.20;;;;;;;16.46;100.00;100661.03;2109394;28;20050;-74
2023/05/23 02:27:35;;;;;;;46.30;21.65;;;;;;;16.47;100.00;100660.13;2113734;28;20047;-74
2023/05/23 02:28:56;;;;;;;37.45;20.05;;;;;;;16.47;100.00;100661.91;2110790;28;20526;-74
2023/05/23 02:30:20;;;;;;;43.03;21.58;;;;;;;16.45;100.00;100659.25;2099523;28;20048;-74
2023/05/23 02:31:45;;;;;;;43.97;21.98;;;;;;;16.44;100.00;100657.50;2104404;28;20442;-74
2023/05/23 02:33:07;;;;;;;47.65;22.33;;;;;;;16.44;100.00;100660.16;2113882;28;20052;-73
2023/05/23 02:34:31;;;;;;;41.53;21.67;;;;;;;16.44;100.00;100661.94;2107109;28;20097;-73
2023/05/23 02:35:54;;;;;;;41.00;20.60;;;;;;;16.45;100.00;100655.72;2106552;28;20451;-73
2023/05/23 02:37:15;;;;;;;41.72;21.38;;;;;;;16.46;100.00;100663.69;2102452;28;20045;-73
2023/05/23 02:38:38;;;;;;;46.38;20.55;;;;;;;16.47;100.00;100654.81;2104565;28;20048;-74
2023/05/23 02:40:00;;;;;;;41.20;21.00;;;;;;;16.46;100.00;100658.38;2112628;28;20067;-74
2023/05/23 02:41:22;;;;;;;46.58;21.23;;;;;;;16.47;100.00;100656.59;2110318;28;20040;-73
2023/05/23 02:42:44;;;;;;;41.28;21.15;;;;;;;16.46;100.00;100662.81;2107555;28;20070;-74
2023/05/23 02:44:05;;;;;;;43.40;20.67;;;;;;;16.47;100.00;100654.81;2099117;28;20089;-74
2023/05/23 02:45:28;;;;;;;37.55;18.75;;;;;;;16.48;100.00;100661.00;2103067;28;20409;-74
2023/05/23 02:46:49;;;;;;;39.15;19.38;;;;;;;16.48;100.00;100663.66;2107417;28;20108;-74
2023/05/23 02:48:15;;;;;;;35.92;19.33;;;;;;;16.48;100.00;100655.66;2105860;28;20048;-74
2023/05/23 02:49:36;;;;;;;36.05;18.95;;;;;;;16.47;100.00;100657.47;2107244;28;20036;-74
2023/05/23 02:50:59;;;;;;;39.78;18.48;;;;;;;16.48;100.00;100653.00;2102560;28;20056;-73
2023/05/23 02:52:21;;;;;;;31.60;15.93;;;;;;;16.47;100.00;100651.25;2107989;28;20043;-73
2023/05/23 02:53:44;;;;;;;29.98;15.63;;;;;;;16.43;100.00;100658.38;2106051;28;20063;-74
2023/05/23 02:55:06;;;;;;;30.63;15.00;;;;;;;16.37;100.00;100649.56;2097207;28;20045;-74
2023/05/23 02:56:34;;;;;;;26.25;13.95;;;;;;;16.31;100.00;100658.50;2100550;28;20063;-74
2023/05/23 02:57:57;;;;;;;28.48;14.23;;;;;;;16.30;100.00;100662.06;2107960;28;20073;-73
2023/05/23 02:59:19;;;;;;;29.40;13.05;;;;;;;16.27;100.00;100667.44;2094934;28;20127;-74
2023/05/23 03:00:42;;;;;;;28.08;13.90;;;;;;;16.27;100.00;100667.44;2097106;28;20520;-74
2023/05/23 03:02:05;;;;;;;34.17;14.95;;;;;;;16.29;100.00;100668.28;2102524;28;20519;-74
2023/05/23 03:03:30;;;;;;;35.88;16.83;;;;;;;16.33;100.00;100662.06;2100746;28;20106;-74
2023/05/23 03:04:55;;;;;;;35.63;17.73;;;;;;;16.38;100.00;100668.22;2097164;28;20044;-73
2023/05/23 03:06:17;;;;;;;45.20;20.02;;;;;;;16.41;100.00;100665.50;2099542;28;20075;-73
2023/05/23 03:07:39;;;;;;;39.45;19.30;;;;;;;16.44;100.00;100667.25;2108266;28;20079;-73
2023/05/23 03:09:01;;;;;;;41.95;19.55;;;;;;;16.47;100.00;100661.91;2100978;28;20036;-72
2023/05/23 03:10:24;;;;;;;36.35;18.55;;;;;;;16.48;100.00;100659.22;2099145;28;20048;-74
2023/05/23 03:11:46;;;;;;;35.47;15.35;;;;;;;16.49;100.00;100660.09;2099264;28;20110;-73
2023/05/23 03:13:08;;;;;;;36.00;14.90;;;;;;;16.50;100.00;100662.75;2100420;28;20048;-74
2023/05/23 03:14:30;;;;;;;28.92;14.15;;;;;;;16.49;100.00;100658.31;2114096;28;20119;-74
2023/05/23 03:15:52;;;;;;;30.73;14.75;;;;;;;16.48;100.00;100651.22;2100429;28;20047;-73
2023/05/23 03:17:15;;;;;;;35.47;15.25;;;;;;;16.48;100.00;100658.31;2102975;28;20032;-73
2023/05/23 03:18:40;;;;;;;37.53;16.63;;;;;;;16.49;100.00;100655.66;2103186;28;20566;-73
2023/05/23 03:20:03;;;;;;;35.83;16.90;;;;;;;16.51;100.00;100653.88;2101222;28;20040;-73
2023/05/23 03:21:26;;;;;;;36.70;19.00;;;;;;;16.51;100.00;100656.53;2100101;28;20051;-74
2023/05/23 03:22:48;;;;;;;37.67;17.27;;;;;;;16.52;100.00;100652.09;2100067;28;20044;-74
2023/05/23 03:24:10;;;;;;;36.42;18.58;;;;;;;16.53;100.00;100649.41;2100215;28;20131;-74
2023/05/23 03:25:32;;;;;;;27.42;14.95;;;;;;;16.54;100.00;100650.28;2099396;28;20486;-73
2023/05/23 03:26:54;;;;;;;27.10;15.15;;;;;;;16.54;100.00;100659.16;2106960;28;20054;-74
2023/05/23 03:28:15;;;;;;;32.63;16.05;;;;;;;16.54;100.00;100655.63;2108644;28;20035;-74
2023/05/23 03:29:38;;;;;;;26.23;13.93;;;;;;;16.54;100.00;100651.16;2109539;28;20388;-74
2023/05/23 03:30:59;;;;;;;31.33;14.15;;;;;;;16.54;100.00;100653.81;2110654;28;20557;-74
2023/05/23 03:32:21;;;;;;;30.95;13.80;;;;;;;16.54;100.00;100650.28;2103656;28;20048;-74
2023/05/23 03:33:46;;;;;;;29.58;15.75;;;;;;;16.55;100.00;100657.38;2099670;28;20048;-74
2023/05/23 03:35:09;;;;;;;33.00;16.08;;;;;;;16.56;100.00;100661.81;2099842;28;20060;-74
2023/05/23 03:36:34;;;;;;;30.17;16.17;;;;;;;16.54;100.00;100653.81;2092432;28;20727;-73
2023/05/23 03:37:57;;;;;;;35.20;16.60;;;;;;;16.54;100.00;100653.81;2096144;28;20128;-72
2023/05/23 03:39:20;;;;;;;35.08;17.92;;;;;;;16.57;100.00;100658.25;2095911;28;20098;-72
2023/05/23 03:40:41;;;;;;;32.10;17.52;;;;;;;16.59;100.00;100651.13;2100226;28;20054;-72
2023/05/23 03:42:04;;;;;;;33.40;18.15;;;;;;;16.58;100.00;100657.34;2099854;28;20044;-73
2023/05/23 03:43:26;;;;;;;34.00;16.30;;;;;;;16.58;100.00;100660.91;2102930;28;20695;-73
2023/05/23 03:44:47;;;;;;;33.35;17.92;;;;;;;16.58;100.00;100660.91;2102687;28;20608;-74
2023/05/23 03:46:10;;;;;;;32.95;17.42;;;;;;;16.59;100.00;100662.66;2095594;28;20451;-73
2023/05/23 03:47:31;;;;;;;34.13;17.38;;;;;;;16.58;100.00;100663.56;2094458;28;20543;-74
2023/05/23 03:48:56;;;;;;;33.05;17.65;;;;;;;16.61;100.00;100660.00;2094157;28;20442;-74
2023/05/23 03:50:19;;;;;;;29.13;17.08;;;;;;;16.61;100.00;100660.00;2094754;28;20098;-73
2023/05/23 03:51:41;;;;;;;28.60;15.68;;;;;;;16.62;100.00;100659.09;2092147;28;20077;-73
2023/05/23 03:53:03;;;;;;;28.08;14.48;;;;;;;16.61;100.00;100663.53;2094388;28;20091;-74
2023/05/23 03:54:25;;;;;;;23.85;12.77;;;;;;;16.62;100.00;100664.44;2094171;28;20048;-74
2023/05/23 03:55:48;;;;;;;21.30;11.13;;;;;;;16.60;100.00;100669.81;2097143;28;20575;-73
2023/05/23 03:57:11;;;;;;;22.67;10.75;;;;;;;16.58;100.00;100671.56;2108386;28;20062;-76
2023/05/23 03:58:32;;;;;;;22.42;9.75;;;;;;;16.54;100.00;100672.47;2103019;28;20499;-74
2023/05/23 03:59:59;;;;;;;20.95;10.23;;;;;;;16.53;100.00;100677.84;2109312;28;20047;-74
2023/05/23 04:01:22;;;;;;;21.42;9.32;;;;;;;16.52;100.00;100676.97;2102464;28;20075;-71
2023/05/23 04:02:45;;;;;;;20.88;9.95;;;;;;;16.55;100.00;100676.03;2099815;28;20055;-71
2023/05/23 04:04:10;;;;;;;19.70;9.05;;;;;;;16.57;100.00;100674.22;2094563;28;20041;-71
2023/05/23 04:05:32;;;;;;;27.30;9.85;;;;;;;16.58;100.00;100676.88;2100428;28;20524;-71
2023/05/23 04:06:56;;;;;;;20.73;8.95;;;;;;;16.62;100.00;100683.09;2102660;28;20040;-72
2023/05/23 04:08:20;;;;;;;20.58;8.73;;;;;;;16.68;100.00;100689.25;2102965;28;20531;-71
2023/05/23 04:09:44;;;;;;;22.90;9.75;;;;;;;16.78;100.00;100691.81;2102783;28;20508;-71
2023/05/23 04:11:08;;;;;;;20.58;9.25;;;;;;;16.86;100.00;100701.50;2094536;28;20041;-71
2023/05/23 04:12:33;;;;;;;21.38;8.10;;;;;;;16.93;100.00;100707.66;2097315;28;20044;-71
2023/05/23 04:13:55;;;;;;;19.35;10.70;;;;;;;17.00;100.00;100715.53;2097836;28;20036;-71
2023/05/23 04:15:20;;;;;;;21.35;11.23;;;;;;;17.06;100.00;100709.28;2107499;28;20077;-71
2023/05/23 04:16:49;;;;;;;;;;;;;;;17.05;100.00;100716.41;2101968;28;20155;-70
2023/05/23 04:18:11;;;;;;;20.90;10.45;;;;;;;17.10;100.00;100711.88;2098297;28;19920;-71
2023/05/23 04:19:35;;;;;;;23.48;10.65;;;;;;;17.15;100.00;100714.50;2098002;28;20141;-71
2023/05/23 04:20:56;;;;;;;26.95;11.80;;;;;;;17.22;100.00;100718.84;2106306;28;20044;-71
2023/05/23 04:22:19;;;;;;;26.10;11.48;;;;;;;17.27;100.00;100718.78;2101467;28;20071;-71
2023/05/23 04:23:43;;;;;;;22.42;10.68;;;;;;;17.34;100.00;100728.47;2107118;28;20094;-71
2023/05/23 04:25:05;;;;;;;23.70;11.63;;;;;;;17.40;100.00;100729.28;2097929;28;20040;-71
2023/05/23 04:26:32;;;;;;;23.25;11.35;;;;;;;17.45;100.00;100724.81;2103094;28;20075;-72
2023/05/23 04:27:54;;;;;;;23.80;11.05;;;;;;;17.48;100.00;100731.88;2098719;28;20063;-72
2023/05/23 04:29:17;;;;;;;22.52;11.48;;;;;;;17.47;100.00;100728.31;2099874;28;20040;-72
2023/05/23 04:30:38;;;;;;;19.75;10.55;;;;;;;17.46;100.00;100728.31;2101708;28;20048;-72
2023/05/23 04:32:02;;;;;;;25.48;13.20;;;;;;;17.45;100.00;100732.81;2090570;28;20136;-72
2023/05/23 04:33:23;;;;;;;19.17;10.55;;;;;;;17.45;100.00;100726.59;2099013;28;20048;-71
2023/05/23 04:34:48;;;;;;;22.20;11.18;;;;;;;17.46;100.00;100729.22;2098274;28;20131;-70
2023/05/23 04:36:11;;;;;;;24.23;12.23;;;;;;;17.47;100.00;100724.75;2108251;28;20043;-71
2023/05/23 04:37:36;;;;;;;24.77;12.80;;;;;;;17.50;100.00;100728.28;2100385;28;20039;-71
2023/05/23 04:38:59;;;;;;;27.38;12.95;;;;;;;17.53;100.00;100725.56;2104949;28;20116;-72
2023/05/23 04:40:22;;;;;;;25.30;12.70;;;;;;;17.57;100.00;100730.88;2104881;28;20081;-71
2023/05/23 04:42:06;;;;;;;25.85;11.93;;;;;;;17.57;100.00;100725.53;2104929;28;20130;-71
2023/05/23 04:43:56;;;;;;;22.65;12.13;;;;;;;17.56;100.00;100721.97;2113414;28;20048;-70
2023/05/23 04:45:42;;;;;;;25.27;12.13;;;;;;;17.59;100.00;100729.06;2113089;28;20381;-71
2023/05/23 04:47:21;;;;;;;27.25;12.07;;;;;;;17.61;100.00;100733.50;2104665;28;20483;-71
2023/05/23 04:49:09;;;;;;;24.23;12.63;;;;;;;17.61;100.00;100733.50;2104986;28;20140;-71
2023/05/23 04:50:34;;;;;;;28.25;12.60;;;;;;;17.64;100.00;100737.94;2102484;28;20442;-71
2023/05/23 04:51:58;;;;;;;28.13;12.07;;;;;;;17.62;100.00;100735.28;2102205;28;20853;-71
2023/05/23 04:53:24;;;;;;;24.00;13.13;;;;;;;17.62;100.00;100726.38;2100817;28;20093;-71
2023/05/23 04:54:47;;;;;;;25.88;13.40;;;;;;;17.64;100.00;100727.25;2107650;28;20508;-71
2023/05/23 04:56:10;;;;;;;26.90;12.35;;;;;;;17.67;100.00;100732.53;2102233;28;20599;-71
2023/05/23 04:57:32;;;;;;;25.48;11.98;;;;;;;17.70;100.00;100732.50;2099997;28;20048;-71
2023/05/23 04:58:57;;;;;;;26.40;12.27;;;;;;;17.75;100.00;100733.31;2099832;28;20113;-72
2023/05/23 05:00:21;;;;;;;23.80;11.95;;;;;;;17.81;100.00;100735.88;2091547;28;20103;-71
2023/05/23 05:01:44;;;;;;;22.65;10.98;;;;;;;17.89;100.00;100736.66;2097163;28;20567;-71
2023/05/23 05:03:08;;;;;;;24.00;10.55;;;;;;;18.03;100.00;100736.47;2099808;28;20614;-71
2023/05/23 05:04:36;;;;;;;22.55;10.90;;;;;;;18.15;100.00;100741.63;2100916;28;20069;-73
2023/05/23 05:06:00;;;;;;;20.05;9.90;;;;;;;18.27;100.00;100739.63;2099062;28;20106;-72
2023/05/23 05:07:23;;;;;;;21.13;9.80;;;;;;;18.38;100.00;100746.59;2108338;28;20063;-71
2023/05/23 05:08:46;;;;;;;21.52;9.85;;;;;;;18.51;100.00;100749.00;2102019;28;20408;-71
2023/05/23 05:10:15;;;;;;;26.02;8.93;;;;;;;18.61;100.00;100747.13;2098866;28;20043;-71
2023/05/23 05:11:39;;;;;;;22.48;10.07;;;;;;;18.69;100.00;100750.53;2100078;28;20162;-72
2023/05/23 05:13:02;;;;;;;22.52;8.57;;;;;;;18.79;100.00;100735.19;2085994;28;20071;-72
2023/05/23 05:14:31;;;;;;;20.17;9.02;;;;;;;18.89;100.00;100735.00;2098520;28;20043;-71
2023/05/23 05:15:55;;;;;;;22.83;8.98;;;;;;;18.99;100.00;100749.97;2091604;28;20075;-72
2023/05/23 05:17:19;;;;;;;19.35;9.23;;;;;;;19.09;100.00;100731.94;2111528;27;20149;-72
2023/05/23 05:18:58;;;;;;;25.95;8.68;;;;;;;19.18;100.00;100733.53;2096154;28;20080;-72
2023/05/23 05:20:20;;;;;;;20.95;8.50;;;;;;;19.28;100.00;100738.69;2086170;28;20060;-73
2023/05/23 05:21:43;;;;;;;17.05;7.07;;;;;;;19.39;100.00;100731.31;2104821;28;20522;-72
2023/05/23 05:23:07;;;;;;;18.13;7.15;;;;;;;19.50;100.00;100731.09;2107421;28;20051;-72
2023/05/23 05:24:31;;;;;;;20.83;7.10;;;;;;;19.62;100.00;100733.53;2094014;28;20036;-72
2023/05/23 05:25:53;;;;;;;18.88;7.75;;;;;;;19.72;100.00;100727.06;2108632;28;20048;-72
2023/05/23 05:27:16;;;;;;;;;;;;;;;19.74;100.00;100722.56;2100958;28;20051;-72
2023/05/23 05:28:37;;;;;;;;;;;;;;;19.78;100.00;100720.66;2114235;28;19923;-72
2023/05/23 05:30:03;;;;;;;16.50;6.22;;;;;;;19.94;100.00;100723.88;2105140;28;19924;-72
2023/05/23 05:31:29;;;;;;;21.05;7.18;;;;;;;20.12;100.00;100718.97;2104409;28;20086;-72
2023/05/23 05:32:51;;;;;;;20.02;6.32;;;;;;;20.29;100.00;100721.22;2097268;28;20050;-72
2023/05/23 05:34:13;;;;;;;20.75;6.25;;;;;;;20.39;100.00;100721.91;2101840;28;20064;-72
2023/05/23 05:35:37;;;;;;;18.95;6.65;;;;;;;20.45;100.00;100713.72;2099448;28;20476;-71
2023/05/23 05:37:02;;;;;;;18.77;6.72;;;;;;;20.48;100.00;100710.97;2093676;28;20099;-72
2023/05/23 05:38:24;;;;;;;18.38;6.57;;;;;;;20.42;100.00;100701.25;2093969;28;20082;-71
2023/05/23 05:39:47;;;;;;;19.20;6.80;;;;;;;20.41;100.00;100691.47;2099236;28;20044;-72
2023/05/23 05:41:09;;;;;;;17.90;6.60;;;;;;;20.47;100.00;100696.69;2093580;28;20040;-73
2023/05/23 05:42:35;;;;;;;19.23;6.70;;;;;;;20.52;100.00;100697.44;2102727;28;20043;-73
2023/05/23 05:43:58;;;;;;;16.45;6.50;;;;;;;20.48;100.00;100698.41;2106057;28;20073;-73
2023/05/23 05:45:21;;;;;;;17.27;6.82;;;;;;;20.40;100.00;100700.44;2093223;28;20136;-73
2023/05/23 05:46:47;;;;;;;19.88;6.90;;;;;;;20.31;100.00;100697.94;2097431;28;20028;-73
2023/05/23 05:48:10;;;;;;;14.68;6.68;;;;;;;20.23;100.00;100697.25;2099674;28;20114;-73
2023/05/23 05:49:34;;;;;;;19.77;6.55;;;;;;;20.13;100.00;100701.97;2101888;28;20055;-72
2023/05/23 05:50:59;;;;;;;22.30;6.68;;;;;;;20.04;100.00;100704.88;2100032;28;20044;-73
2023/05/23 05:52:22;;;;;;;18.80;6.93;;;;;;;20.02;100.00;100708.53;2099836;28;20040;-71
2023/05/23 05:53:45;;;;;;;19.88;7.55;;;;;;;20.08;100.00;100700.31;2099518;28;20540;-72
2023/05/23 05:55:10;;;;;;;17.98;7.95;;;;;;;20.16;100.00;100707.25;2098958;28;20043;-73
2023/05/23 05:56:33;;;;;;;20.50;8.68;;;;;;;20.22;100.00;100714.25;2100212;28;20543;-73
2023/05/23 05:57:56;;;;;;;17.83;8.77;;;;;;;20.38;100.00;100706.75;2102044;28;20048;-73
2023/05/23 05:59:20;;;;;;;18.33;8.52;;;;;;;20.54;100.00;100714.38;2098864;28;20044;-72
2023/05/23 06:00:43;;;;;;;16.90;8.05;;;;;;;20.72;100.00;100710.31;2108394;28;20048;-72
2023/05/23 06:02:07;;;;;;;15.63;8.68;;;;;;;20.73;100.00;100709.41;2100752;28;20036;-73
2023/05/23 06:03:29;;;;;;;15.05;8.48;;;;;;;20.61;100.00;100707.91;2098368;28;20044;-73
2023/05/23 06:04:52;;;;;;;16.20;8.98;;;;;;;20.49;100.00;100707.34;2099028;28;20093;-72
2023/05/23 06:06:13;;;;;;;21.08;8.90;;;;;;;20.38;100.00;100712.09;2099563;28;20032;-72
2023/05/23 06:07:38;;;;;;;19.40;8.05;;;;;;;20.37;100.00;100715.69;2099418;28;20063;-73
2023/05/23 06:09:01;;;;;;;16.58;8.90;;;;;;;20.52;100.00;100708.16;2085249;28;20052;-73
2023/05/23 06:10:25;;;;;;;17.63;8.23;;;;;;;20.73;100.00;100711.19;2094296;28;20057;-73
2023/05/23 06:11:48;;;;;;;18.60;8.50;;;;;;;20.74;100.00;100705.78;2083093;28;20049;-72
2023/05/23 06:13:11;;;;;;;16.80;8.02;;;;;;;20.68;100.00;100705.94;2088334;28;20086;-73
2023/05/23 06:14:35;;;;;;;19.52;6.75;;;;;;;20.77;100.00;100705.69;2091601;28;20094;-72
2023/05/23 06:15:58;;;;;;;15.90;7.60;;;;;;;21.05;100.00;100706.69;2107666;28;20055;-72
2023/05/23 06:17:22;;;;;;;17.75;7.57;;;;;;;21.33;100.00;100703.25;2104325;28;20040;-72
2023/05/23 06:18:44;;;;;;;15.90;7.32;;;;;;;21.59;100.00;100707.84;2098163;28;20064;-72